createdAt,value
2022-10-27T00:00:12.786Z,7.22
2022-10-27T00:02:39.800Z,7.22
2022-10-27T00:05:06.534Z,7.19
2022-10-27T00:07:35.653Z,7.19
2022-10-27T00:10:02.186Z,7.02
2022-10-27T00:12:30.659Z,7.09
2022-10-27T00:14:57.219Z,7.00
2022-10-27T00:17:23.892Z,7.00
2022-10-27T00:19:50.520Z,6.92
2022-10-27T00:22:17.127Z,6.82
2022-10-27T00:24:43.808Z,6.85
2022-10-27T00:27:10.349Z,6.92
2022-10-27T00:29:36.909Z,6.83
2022-10-27T00:32:03.547Z,6.84
2022-10-27T00:34:30.352Z,6.78
2022-10-27T00:36:56.896Z,6.86
2022-10-27T00:39:23.479Z,6.78
2022-10-27T00:41:50.157Z,6.64
2022-10-27T00:44:36.457Z,6.59
2022-10-27T00:47:25.559Z,6.55
2022-10-27T00:50:15.496Z,6.52
2022-10-27T00:53:00.264Z,6.51
2022-10-27T00:55:30.848Z,6.51
2022-10-27T00:57:58.112Z,6.51
2022-10-27T01:00:24.938Z,6.58
2022-10-27T01:02:51.868Z,6.55
2022-10-27T01:05:20.375Z,6.48
2022-10-27T01:07:47.621Z,6.42
2022-10-27T01:10:14.495Z,6.43
2022-10-27T01:12:41.241Z,6.44
2022-10-27T01:15:08.521Z,6.44
2022-10-27T01:17:41.124Z,6.33
2022-10-27T01:20:22.529Z,6.29
2022-10-27T01:23:26.635Z,6.32
2022-10-27T01:26:08.240Z,6.31
2022-10-27T01:29:05.294Z,6.40
2022-10-27T01:31:58.258Z,6.42
2022-10-27T01:34:36.462Z,6.30
2022-10-27T01:37:15.738Z,6.32
2022-10-27T01:40:04.351Z,6.37
2022-10-27T01:43:04.528Z,6.43
2022-10-27T01:45:32.682Z,6.35
2022-10-27T01:47:59.403Z,6.38
2022-10-27T01:51:00.563Z,6.26
2022-10-27T01:53:29.563Z,6.18
2022-10-27T01:56:02.307Z,6.11
2022-10-27T01:58:52.990Z,5.98
2022-10-27T02:01:32.669Z,5.94
2022-10-27T02:04:35.063Z,5.95
2022-10-27T02:07:30.073Z,5.96
2022-10-27T02:10:19.772Z,5.96
2022-10-27T02:12:46.390Z,6.00
2022-10-27T02:15:32.559Z,5.95
2022-10-27T02:18:15.549Z,5.90
2022-10-27T02:20:44.204Z,5.86
2022-10-27T02:23:14.186Z,5.85
2022-10-27T02:25:50.639Z,5.84
2022-10-27T02:28:17.888Z,5.78
2022-10-27T02:30:44.550Z,5.73
2022-10-27T02:33:11.241Z,5.77
2022-10-27T02:35:37.879Z,5.67
2022-10-27T02:38:04.349Z,5.67
2022-10-27T02:40:30.984Z,5.75
2022-10-27T02:42:57.607Z,5.76
2022-10-27T02:45:24.195Z,5.78
2022-10-27T02:47:50.691Z,5.71
2022-10-27T02:50:17.366Z,5.75
2022-10-27T02:52:44.152Z,5.81
2022-10-27T02:55:10.821Z,5.84
2022-10-27T02:57:37.384Z,5.87
2022-10-27T03:00:05.382Z,5.89
2022-10-27T03:02:32.159Z,5.87
2022-10-27T03:04:58.650Z,5.81
2022-10-27T03:07:25.170Z,5.87
2022-10-27T03:09:51.783Z,5.83
2022-10-27T03:12:18.434Z,5.86
2022-10-27T03:14:45.141Z,5.86
2022-10-27T03:17:11.995Z,5.79
2022-10-27T03:19:38.651Z,5.81
2022-10-27T03:22:05.329Z,5.81
2022-10-27T03:24:31.953Z,5.81
2022-10-27T03:26:58.614Z,5.86
2022-10-27T03:29:25.184Z,5.87
2022-10-27T03:31:51.839Z,5.81
2022-10-27T03:34:20.289Z,5.87
2022-10-27T03:36:48.113Z,5.89
2022-10-27T03:39:14.891Z,5.84
2022-10-27T03:41:41.524Z,5.81
2022-10-27T03:44:08.051Z,5.83
2022-10-27T03:46:34.664Z,5.82
2022-10-27T03:49:01.261Z,5.81
2022-10-27T03:51:27.956Z,5.89
2022-10-27T03:53:56.235Z,5.92
2022-10-27T03:56:22.852Z,5.95
2022-10-27T03:58:49.506Z,5.99
2022-10-27T04:01:16.270Z,5.98
2022-10-27T04:03:42.886Z,6.03
2022-10-27T04:06:09.456Z,6.07
2022-10-27T04:08:36.069Z,6.05
2022-10-27T04:11:02.691Z,5.98
2022-10-27T04:13:30.794Z,5.99
2022-10-27T04:16:01.113Z,5.98
2022-10-27T04:18:27.623Z,5.99
2022-10-27T04:20:54.169Z,5.98
2022-10-27T04:23:20.757Z,6.00
2022-10-27T04:25:47.376Z,5.98
2022-10-27T04:28:14.102Z,5.99
2022-10-27T04:30:40.795Z,5.98
2022-10-27T04:33:07.471Z,5.98
2022-10-27T04:38:05.553Z,5.93
2022-10-27T04:40:32.122Z,5.98
2022-10-27T04:42:58.793Z,5.91
2022-10-27T04:45:25.986Z,5.91
2022-10-27T04:47:52.796Z,5.87
2022-10-27T04:50:19.654Z,5.83
2022-10-27T04:52:56.686Z,5.84
2022-10-27T04:55:23.909Z,5.83
2022-10-27T04:57:50.460Z,5.81
2022-10-27T05:00:18.019Z,5.81
2022-10-27T05:02:45.044Z,5.80
2022-10-27T05:05:11.675Z,5.74
2022-10-27T05:07:38.311Z,5.79
2022-10-27T05:10:05.277Z,5.80
2022-10-27T05:12:31.903Z,5.77
2022-10-27T05:14:58.602Z,5.59
2022-10-27T05:17:25.313Z,5.79
2022-10-27T05:19:52.031Z,5.76
2022-10-27T05:22:18.746Z,5.69
2022-10-27T05:24:45.405Z,5.68
2022-10-27T05:27:11.967Z,5.75
2022-10-27T05:29:38.650Z,5.73
2022-10-27T05:32:05.233Z,6.40
2022-10-27T05:34:31.836Z,5.86
2022-10-27T05:36:58.362Z,5.81
2022-10-27T05:39:25.872Z,5.79
2022-10-27T05:41:52.529Z,5.76
2022-10-27T05:44:19.253Z,5.75
2022-10-27T05:46:46.385Z,5.77
2022-10-27T05:49:13.054Z,5.68
2022-10-27T05:51:40.699Z,5.72
2022-10-27T05:54:07.191Z,5.69
2022-10-27T05:56:33.718Z,5.67
2022-10-27T05:59:00.293Z,5.65
2022-10-27T06:01:27.040Z,5.63
2022-10-27T06:03:53.642Z,5.63
2022-10-27T06:06:20.283Z,5.61
2022-10-27T06:08:46.825Z,5.72
2022-10-27T06:11:13.353Z,5.69
2022-10-27T06:13:40.060Z,5.69
2022-10-27T06:16:08.320Z,5.77
2022-10-27T06:18:37.345Z,5.80
2022-10-27T06:21:03.993Z,5.80
2022-10-27T06:23:30.537Z,5.86
2022-10-27T06:25:57.118Z,5.91
2022-10-27T06:28:23.657Z,5.88
2022-10-27T06:30:50.275Z,5.90
2022-10-27T06:33:16.776Z,5.94
2022-10-27T06:35:45.423Z,5.90
2022-10-27T06:38:12.008Z,5.91
2022-10-27T06:40:38.558Z,5.92
2022-10-27T06:43:08.785Z,5.94
2022-10-27T06:45:35.873Z,6.06
2022-10-27T06:48:02.492Z,5.97
2022-10-27T06:50:29.341Z,5.96
2022-10-27T06:52:56.732Z,5.97
2022-10-27T06:55:23.345Z,6.13
2022-10-27T06:57:50.247Z,6.19
2022-10-27T07:00:17.789Z,6.23
2022-10-27T07:02:44.529Z,6.33
2022-10-27T07:05:11.152Z,6.42
2022-10-27T07:07:37.834Z,6.54
2022-10-27T07:10:05.802Z,6.63
2022-10-27T07:12:32.543Z,6.63
2022-10-27T07:14:59.109Z,6.78
2022-10-27T07:17:25.637Z,6.87
2022-10-27T07:19:52.173Z,7.07
2022-10-27T07:22:19.033Z,7.02
2022-10-27T07:24:45.537Z,7.19
2022-10-27T07:27:12.237Z,7.39
2022-10-27T07:29:38.712Z,7.47
2022-10-27T07:32:05.370Z,7.52
2022-10-27T07:34:32.037Z,7.64
2022-10-27T07:37:09.101Z,7.74
2022-10-27T07:39:43.381Z,7.83
2022-10-27T07:45:04.767Z,8.03
2022-10-27T07:47:31.583Z,8.15
2022-10-27T07:49:58.350Z,8.31
2022-10-27T07:52:24.989Z,8.35
2022-10-27T07:54:51.589Z,8.38
2022-10-27T07:57:18.690Z,8.47
2022-10-27T07:59:45.637Z,8.66
2022-10-27T08:02:12.244Z,9.00
2022-10-27T08:04:38.921Z,9.26
2022-10-27T08:07:05.591Z,9.44
2022-10-27T08:09:32.303Z,9.80
2022-10-27T08:11:59.607Z,10.06
2022-10-27T08:14:26.120Z,10.16
2022-10-27T08:16:52.699Z,10.14
2022-10-27T08:19:19.344Z,10.21
2022-10-27T08:21:45.958Z,10.46
2022-10-27T08:26:39.230Z,10.24
2022-10-27T08:29:06.122Z,10.22
2022-10-27T08:31:32.722Z,10.27
2022-10-27T08:34:00.189Z,10.29
2022-10-27T08:36:27.136Z,10.28
2022-10-27T08:38:53.893Z,10.27
2022-10-27T08:41:34.691Z,10.39
2022-10-27T08:44:22.656Z,10.44
2022-10-27T08:46:51.663Z,10.61
2022-10-27T08:49:26.162Z,10.76
2022-10-27T08:51:52.726Z,10.83
2022-10-27T08:54:19.856Z,10.85
2022-10-27T08:56:46.768Z,10.92
2022-10-27T08:59:18.651Z,11.07
2022-10-27T09:02:13.341Z,11.47
2022-10-27T09:05:15.046Z,12.65
2022-10-27T09:08:06.141Z,13.17
2022-10-27T09:11:12.148Z,13.27
2022-10-27T09:14:08.040Z,12.80
2022-10-27T09:16:43.484Z,12.73
2022-10-27T09:19:13.959Z,13.41
2022-10-27T09:21:41.500Z,14.74
2022-10-27T09:24:14.227Z,15.44
2022-10-27T09:26:41.425Z,16.10
2022-10-27T09:29:28.820Z,16.47
2022-10-27T09:32:13.593Z,17.26
2022-10-27T09:34:40.852Z,17.42
2022-10-27T09:37:14.930Z,17.81
2022-10-27T09:39:43.770Z,18.31
2022-10-27T09:42:10.569Z,18.88
2022-10-27T09:44:37.283Z,18.98
2022-10-27T09:47:04.069Z,18.24
2022-10-27T09:49:38.395Z,17.56
2022-10-27T09:52:12.524Z,16.76
2022-10-27T09:54:40.202Z,16.62
2022-10-27T09:57:10.910Z,16.63
2022-10-27T09:59:38.241Z,16.89
2022-10-27T10:02:31.877Z,17.64
2022-10-27T10:04:59.580Z,17.61
2022-10-27T10:07:37.342Z,17.44
2022-10-27T10:10:29.710Z,17.22
2022-10-27T10:13:02.806Z,17.75
2022-10-27T10:15:29.942Z,18.65
2022-10-27T10:17:58.204Z,18.84
2022-10-27T10:23:20.605Z,17.85
2022-10-27T10:25:47.561Z,17.42
2022-10-27T10:28:27.299Z,17.88
2022-10-27T10:30:54.218Z,17.35
2022-10-27T10:33:21.786Z,17.23
2022-10-27T10:35:49.205Z,17.04
2022-10-27T10:38:33.151Z,16.44
2022-10-27T10:41:03.946Z,16.29
2022-10-27T10:43:30.654Z,16.14
2022-10-27T10:45:58.176Z,16.06
2022-10-27T10:48:31.070Z,15.82
2022-10-27T10:50:58.114Z,15.82
2022-10-27T10:53:30.725Z,15.75
2022-10-27T10:56:00.926Z,15.77
2022-10-27T10:58:27.986Z,15.77
2022-10-27T11:00:56.794Z,15.89
2022-10-27T11:03:23.841Z,16.15
2022-10-27T11:06:01.855Z,16.24
2022-10-27T11:08:42.127Z,16.00
2022-10-27T11:11:20.152Z,15.80
2022-10-27T11:13:52.784Z,15.74
2022-10-27T11:16:19.283Z,15.78
2022-10-27T11:18:55.551Z,15.87
2022-10-27T11:21:32.693Z,15.89
2022-10-27T11:24:14.070Z,15.86
2022-10-27T11:26:49.731Z,16.04
2022-10-27T11:29:28.360Z,16.07
2022-10-27T11:32:16.340Z,16.04
2022-10-27T11:34:47.128Z,16.29
2022-10-27T11:37:53.622Z,16.36
2022-10-27T11:40:35.508Z,16.43
2022-10-27T11:43:06.296Z,16.51
2022-10-27T11:45:47.474Z,16.39
2022-10-27T11:48:23.885Z,16.41
2022-10-27T11:51:06.859Z,16.31
2022-10-27T11:53:37.575Z,16.34
2022-10-27T11:56:37.221Z,16.62
2022-10-27T11:59:23.205Z,16.94
2022-10-27T12:01:54.277Z,16.84
2022-10-27T12:04:26.876Z,16.89
2022-10-27T12:07:22.145Z,16.87
2022-10-27T12:10:10.165Z,16.91
2022-10-27T12:12:38.254Z,16.95
2022-10-27T12:15:11.311Z,17.05
2022-10-27T12:17:46.529Z,17.10
2022-10-27T12:20:23.229Z,17.21
2022-10-27T12:22:50.208Z,17.26
2022-10-27T12:25:24.735Z,17.33
2022-10-27T12:27:52.936Z,17.30
2022-10-27T12:30:21.207Z,17.37
2022-10-27T12:32:54.483Z,17.37
2022-10-27T12:35:35.076Z,17.33
2022-10-27T12:38:34.322Z,17.44
2022-10-27T12:41:16.187Z,17.39
2022-10-27T12:43:47.333Z,17.53
2022-10-27T12:46:54.902Z,17.41
2022-10-27T12:49:31.155Z,17.43
2022-10-27T12:52:17.794Z,17.59
2022-10-27T12:57:52.113Z,17.52
2022-10-27T13:00:20.872Z,17.64
2022-10-27T13:03:11.831Z,17.45
2022-10-27T13:05:48.394Z,17.43
2022-10-27T13:08:24.931Z,17.38
2022-10-27T13:11:06.706Z,17.45
2022-10-27T13:13:52.343Z,17.53
2022-10-27T13:16:37.645Z,17.54
2022-10-27T13:19:25.665Z,17.57
2022-10-27T13:22:04.018Z,17.48
2022-10-27T13:24:38.149Z,17.54
2022-10-27T13:27:07.083Z,17.54
2022-10-27T13:29:53.161Z,17.50
2022-10-27T13:32:19.907Z,17.52
2022-10-27T13:35:01.769Z,17.64
2022-10-27T13:37:46.975Z,17.52
2022-10-27T13:40:19.765Z,17.52
2022-10-27T13:42:56.794Z,17.53
2022-10-27T13:45:36.073Z,17.53
2022-10-27T13:48:08.784Z,17.43
2022-10-27T13:50:40.050Z,17.42
2022-10-27T13:53:15.585Z,17.42
2022-10-27T13:55:42.973Z,17.42
2022-10-27T13:58:19.131Z,17.34
2022-10-27T14:01:01.236Z,17.39
2022-10-27T14:03:59.356Z,17.34
2022-10-27T14:06:33.936Z,17.38
2022-10-27T14:09:34.275Z,17.30
2022-10-27T14:12:27.945Z,17.28
2022-10-27T14:15:16.962Z,17.24
2022-10-27T14:17:43.873Z,17.24
2022-10-27T14:20:28.004Z,17.15
2022-10-27T14:23:06.513Z,17.09
2022-10-27T14:25:33.262Z,17.07
2022-10-27T14:28:08.754Z,17.09
2022-10-27T14:30:35.317Z,17.02
2022-10-27T14:33:18.066Z,17.01
2022-10-27T14:35:44.649Z,16.93
2022-10-27T14:38:18.521Z,16.90
2022-10-27T14:40:45.589Z,16.86
2022-10-27T14:43:19.031Z,16.81
2022-10-27T14:45:45.653Z,16.79
2022-10-27T14:48:31.885Z,16.74
2022-10-27T14:50:59.404Z,16.65
2022-10-27T14:53:33.291Z,16.65
2022-10-27T14:56:07.161Z,16.62
2022-10-27T14:58:33.697Z,16.52
2022-10-27T15:01:00.325Z,16.51
2022-10-27T15:03:33.641Z,16.35
2022-10-27T15:06:00.167Z,16.25
2022-10-27T15:08:32.110Z,16.18
2022-10-27T15:11:00.261Z,16.10
2022-10-27T15:13:27.115Z,16.02
2022-10-27T15:15:54.908Z,15.96
2022-10-27T15:18:22.666Z,15.91
2022-10-27T15:20:49.957Z,15.85
2022-10-27T15:23:16.903Z,15.69
2022-10-27T15:25:43.905Z,15.72
2022-10-27T15:28:10.799Z,15.64
2022-10-27T15:30:37.374Z,15.52
2022-10-27T15:33:26.096Z,15.36
2022-10-27T15:35:56.525Z,15.19
2022-10-27T15:38:27.853Z,15.06
2022-10-27T15:40:55.817Z,14.92
2022-10-27T15:43:24.364Z,14.72
2022-10-27T15:45:51.221Z,14.52
2022-10-27T15:48:23.808Z,14.38
2022-10-27T15:51:10.951Z,14.09
2022-10-27T15:53:53.760Z,13.84
2022-10-27T15:56:55.188Z,13.60
2022-10-27T15:59:25.579Z,13.33
2022-10-27T16:01:53.547Z,13.16
2022-10-27T16:04:31.171Z,13.07
2022-10-27T16:07:22.076Z,12.78
2022-10-27T16:09:49.279Z,12.63
2022-10-27T16:12:16.566Z,12.53
2022-10-27T16:14:48.553Z,12.49
2022-10-27T16:17:25.155Z,12.42
2022-10-27T16:19:51.873Z,12.34
2022-10-27T16:22:20.408Z,12.19
2022-10-27T16:24:50.283Z,12.03
2022-10-27T16:27:20.420Z,11.99
2022-10-27T16:29:48.529Z,11.94
2022-10-27T16:32:15.256Z,11.75
2022-10-27T16:34:41.939Z,11.54
2022-10-27T16:37:19.863Z,11.50
2022-10-27T16:39:46.445Z,11.37
2022-10-27T16:42:13.098Z,11.29
2022-10-27T16:44:39.803Z,11.21
2022-10-27T16:47:11.487Z,11.11
2022-10-27T16:49:41.175Z,10.92
2022-10-27T16:52:07.886Z,10.86
2022-10-27T16:54:38.552Z,10.86
2022-10-27T16:57:08.494Z,10.70
2022-10-27T16:59:35.187Z,10.68
2022-10-27T17:02:01.865Z,10.63
2022-10-27T17:04:30.604Z,10.57
2022-10-27T17:07:00.454Z,10.62
2022-10-27T17:09:29.255Z,10.44
2022-10-27T17:11:58.284Z,10.37
2022-10-27T17:14:25.161Z,10.31
2022-10-27T17:16:51.741Z,10.25
2022-10-27T17:19:18.868Z,10.20
2022-10-27T17:21:48.284Z,10.14
2022-10-27T17:24:14.887Z,10.08
2022-10-27T17:26:41.521Z,10.10
2022-10-27T17:29:08.219Z,10.01
2022-10-27T17:31:40.504Z,9.95
2022-10-27T17:34:10.208Z,9.83
2022-10-27T17:36:36.993Z,9.71
2022-10-27T17:39:04.070Z,9.66
2022-10-27T17:41:30.843Z,9.68
2022-10-27T17:43:57.600Z,9.59
2022-10-27T17:46:27.463Z,9.52
2022-10-27T17:48:57.800Z,9.47
2022-10-27T17:51:30.965Z,9.39
2022-10-27T17:54:01.524Z,9.39
2022-10-27T17:56:35.387Z,9.44
2022-10-27T17:59:02.091Z,9.34
2022-10-27T18:01:35.786Z,9.31
2022-10-27T18:04:12.087Z,9.27
2022-10-27T18:06:39.135Z,9.13
2022-10-27T18:09:05.966Z,9.09
2022-10-27T18:11:34.044Z,9.02
2022-10-27T18:14:03.831Z,8.97
2022-10-27T18:16:32.779Z,8.94
2022-10-27T18:19:04.161Z,8.88
2022-10-27T18:21:32.897Z,8.93
2022-10-27T18:24:00.148Z,8.85
2022-10-27T18:26:28.000Z,8.74
2022-10-27T18:28:54.650Z,8.65
2022-10-27T18:31:23.218Z,8.58
2022-10-27T18:33:50.198Z,8.58
2022-10-27T18:36:21.777Z,8.55
2022-10-27T18:38:55.131Z,8.57
2022-10-27T18:41:25.977Z,8.53
2022-10-27T18:43:54.321Z,8.53
2022-10-27T18:46:22.623Z,8.40
2022-10-27T18:48:51.523Z,8.36
2022-10-27T18:51:18.552Z,8.28
2022-10-27T18:53:45.799Z,8.31
2022-10-27T18:56:13.513Z,8.41
2022-10-27T18:58:40.193Z,8.35
2022-10-27T19:01:22.337Z,8.29
2022-10-27T19:03:56.079Z,8.26
2022-10-27T19:06:26.943Z,8.26
2022-10-27T19:08:54.667Z,8.16
2022-10-27T19:11:25.898Z,8.13
2022-10-27T19:13:53.771Z,7.99
2022-10-27T19:16:21.606Z,7.97
2022-10-27T19:18:48.364Z,7.98
2022-10-27T19:21:40.559Z,7.95
2022-10-27T19:24:19.430Z,7.86
2022-10-27T19:27:23.301Z,7.87
2022-10-27T19:29:50.309Z,7.86
2022-10-27T19:32:24.406Z,7.83
2022-10-27T19:34:59.863Z,7.76
2022-10-27T19:37:26.678Z,7.77
2022-10-27T19:39:53.588Z,7.77
2022-10-27T19:42:21.245Z,7.77
2022-10-27T19:45:03.232Z,7.81
2022-10-27T19:47:30.580Z,7.75
2022-10-27T19:49:57.574Z,7.78
2022-10-27T19:52:27.459Z,7.67
2022-10-27T19:54:54.107Z,7.72
2022-10-27T19:57:20.907Z,7.55
2022-10-27T19:59:50.216Z,7.52
2022-10-27T20:02:17.663Z,7.51
2022-10-27T20:04:45.033Z,7.47
2022-10-27T20:07:11.901Z,7.48
2022-10-27T20:09:38.996Z,7.47
2022-10-27T20:12:06.440Z,7.53
2022-10-27T20:14:33.807Z,7.59
2022-10-27T20:17:02.655Z,7.55
2022-10-27T20:19:30.719Z,7.61
2022-10-27T20:21:59.644Z,7.54
2022-10-27T20:24:28.954Z,7.43
2022-10-27T20:27:02.107Z,7.37
2022-10-27T20:29:35.201Z,7.37
2022-10-27T20:32:03.496Z,7.40
2022-10-27T20:34:38.593Z,7.19
2022-10-27T20:37:09.060Z,7.14
2022-10-27T20:39:36.229Z,7.24
2022-10-27T20:42:03.394Z,7.27
2022-10-27T20:44:30.202Z,7.20
2022-10-27T20:46:57.069Z,7.14
2022-10-27T20:49:23.891Z,7.12
2022-10-27T20:51:50.750Z,7.08
2022-10-27T20:54:17.538Z,7.08
2022-10-27T20:56:44.526Z,7.09
2022-10-27T20:59:11.590Z,7.06
2022-10-27T21:01:42.209Z,7.08
2022-10-27T21:04:11.835Z,7.00
2022-10-27T21:06:43.439Z,7.06
2022-10-27T21:09:12.184Z,6.96
2022-10-27T21:11:39.050Z,6.93
2022-10-27T21:14:05.978Z,6.87
2022-10-27T21:16:32.930Z,6.84
2022-10-27T21:19:00.938Z,6.87
2022-10-27T21:21:29.215Z,6.88
2022-10-27T21:23:57.627Z,6.82
2022-10-27T21:26:24.399Z,6.84
2022-10-27T21:28:55.182Z,6.83
2022-10-27T21:31:24.110Z,6.75
2022-10-27T21:33:51.054Z,6.63
2022-10-27T21:36:18.067Z,6.51
2022-10-27T21:38:46.056Z,6.53
2022-10-27T21:41:13.544Z,6.53
2022-10-27T21:43:41.818Z,6.51
2022-10-27T21:46:08.601Z,6.57
2022-10-27T21:48:36.339Z,6.59
2022-10-27T21:51:03.032Z,6.59
2022-10-27T21:53:29.783Z,5.81
2022-10-27T21:56:06.905Z,6.38
2022-10-27T21:58:34.205Z,6.36
2022-10-27T22:01:14.878Z,6.31
2022-10-27T22:03:42.319Z,6.37
2022-10-27T22:06:17.430Z,6.28
2022-10-27T22:08:46.915Z,6.38
2022-10-27T22:11:15.751Z,6.31
2022-10-27T22:13:42.603Z,6.38
2022-10-27T22:16:10.961Z,6.51
2022-10-27T22:18:37.723Z,6.45
2022-10-27T22:21:04.985Z,6.28
2022-10-27T22:23:32.342Z,6.24
2022-10-27T22:26:06.789Z,6.28
2022-10-27T22:28:33.539Z,6.30
2022-10-27T22:31:07.486Z,6.31
2022-10-27T22:33:34.289Z,6.37
2022-10-27T22:36:05.100Z,6.26
2022-10-27T22:38:31.891Z,6.22
2022-10-27T22:41:02.764Z,6.14
2022-10-27T22:43:30.095Z,6.25
2022-10-27T22:45:57.124Z,6.22
2022-10-27T22:48:23.867Z,6.30
2022-10-27T22:50:50.836Z,6.28
2022-10-27T22:53:17.507Z,6.21
2022-10-27T22:55:44.218Z,6.15
2022-10-27T22:58:10.982Z,6.20
2022-10-27T23:00:37.659Z,6.21
2022-10-27T23:03:05.222Z,6.18
2022-10-27T23:05:32.002Z,6.11
2022-10-27T23:07:58.742Z,5.95
2022-10-27T23:10:25.515Z,5.87
2022-10-27T23:12:52.562Z,5.83
2022-10-27T23:15:19.607Z,5.93
2022-10-27T23:17:46.478Z,6.05
2022-10-27T23:20:13.374Z,6.03
2022-10-27T23:22:40.460Z,6.18
2022-10-27T23:25:07.579Z,6.06
2022-10-27T23:27:34.523Z,6.05
2022-10-27T23:30:01.317Z,5.88
2022-10-27T23:32:28.466Z,5.84
2022-10-27T23:34:55.182Z,5.85
2022-10-27T23:37:22.019Z,5.86
2022-10-27T23:39:48.825Z,5.80
2022-10-27T23:42:15.583Z,5.75
2022-10-27T23:44:42.272Z,5.75
2022-10-27T23:47:09.066Z,5.89
2022-10-27T23:49:35.924Z,5.91
2022-10-27T23:52:05.906Z,5.93
2022-10-27T23:54:33.787Z,5.93
2022-10-27T23:57:00.676Z,5.96
2022-10-27T23:59:27.367Z,5.85
